createdAt,value
2018-09-22T00:01:28.720Z,17.83
2018-09-22T00:07:22.114Z,15.51
2018-09-22T00:13:17.106Z,21.79
2018-09-22T00:19:12.135Z,20.03
2018-09-22T00:25:07.116Z,17.15
2018-09-22T00:31:06.217Z,18.69
2018-09-22T00:36:57.125Z,18.46
2018-09-22T00:42:52.189Z,24.21
2018-09-22T00:48:47.138Z,16.88
2018-09-22T00:54:42.139Z,19.85
2018-09-22T01:00:38.788Z,20.28
2018-09-22T01:06:32.154Z,21.61
2018-09-22T01:12:27.225Z,18.39
2018-09-22T01:18:22.156Z,15.7
2018-09-22T01:24:17.149Z,19.38
2018-09-22T01:30:16.261Z,16.97
2018-09-22T01:36:11.230Z,18.49
2018-09-22T01:42:02.199Z,15.77
2018-09-22T01:47:57.201Z,18.38
2018-09-22T01:53:52.180Z,19.32
2018-09-22T01:59:47.250Z,18.77
2018-09-22T02:05:42.203Z,19.82
2018-09-22T02:11:39.230Z,18.58
2018-09-22T02:17:32.193Z,19.72
2018-09-22T02:23:27.218Z,22.18
2018-09-22T02:29:22.237Z,17.77
2018-09-22T02:35:17.223Z,17
2018-09-22T02:41:12.289Z,19.79
2018-09-22T02:47:07.251Z,26.16
2018-09-22T02:53:02.247Z,21.17
2018-09-22T02:58:57.268Z,26.17
2018-09-22T03:04:52.287Z,21.25
2018-09-22T03:10:47.251Z,19.95
2018-09-22T03:16:42.246Z,21.62
2018-09-22T03:22:37.322Z,18.79
2018-09-22T03:28:32.284Z,26.02
2018-09-22T03:34:27.331Z,21.12
2018-09-22T03:40:22.271Z,19.13
2018-09-22T03:46:17.264Z,18.63
2018-09-22T03:52:12.270Z,17.66
2018-09-22T03:58:07.325Z,21.69
2018-09-22T04:04:02.331Z,19.46
2018-09-22T04:09:57.287Z,22.1
2018-09-22T04:15:53.792Z,17.8
2018-09-22T04:21:47.313Z,28.87
2018-09-22T04:27:42.356Z,23.37
2018-09-22T04:33:37.355Z,22.47
2018-09-22T04:39:32.320Z,22.17
2018-09-22T04:45:27.401Z,23.63
2018-09-22T04:51:22.349Z,24.7
2018-09-22T04:57:17.319Z,22.38
2018-09-22T05:03:13.703Z,21.63
2018-09-22T05:09:07.354Z,22.17
2018-09-22T05:15:02.350Z,23.58
2018-09-22T05:20:57.354Z,23.62
2018-09-22T05:26:52.373Z,22.27
2018-09-22T05:32:47.371Z,24.58
2018-09-22T05:38:42.364Z,20.57
2018-09-22T05:44:37.362Z,22.58
2018-09-22T05:50:32.422Z,23.83
2018-09-22T05:56:27.378Z,26.6
2018-09-22T06:02:22.381Z,25.69
2018-09-22T06:08:17.403Z,19.9
2018-09-22T06:14:12.410Z,28.59
2018-09-22T06:20:07.390Z,28.84
2018-09-22T06:26:02.456Z,26.48
2018-09-22T06:31:59.108Z,28.83
2018-09-22T06:37:52.400Z,29.53
2018-09-22T06:43:47.535Z,28.1
2018-09-22T06:49:42.438Z,39.54
2018-09-22T06:55:37.426Z,36.66
2018-09-22T07:01:32.451Z,28.6
2018-09-22T07:07:27.430Z,36.62
2018-09-22T07:13:22.487Z,25.65
2018-09-22T07:19:17.448Z,28.82
2018-09-22T07:25:12.493Z,24.88
2018-09-22T07:31:09.039Z,25.68
2018-09-22T07:37:02.455Z,27.86
2018-09-22T07:42:57.448Z,23.94
2018-09-22T07:48:52.464Z,28.99
2018-09-22T07:54:47.444Z,27.36
2018-09-22T08:00:44.447Z,24.09
2018-09-22T08:06:38.984Z,38.44
2018-09-22T08:12:32.485Z,21.83
2018-09-22T08:18:27.496Z,21.55
2018-09-22T08:24:22.482Z,25.18
2018-09-22T08:30:21.629Z,21.58
2018-09-22T08:36:12.567Z,21.1
2018-09-22T08:42:07.506Z,23.9
2018-09-22T08:48:02.556Z,20.06
2018-09-22T08:53:57.526Z,19.84
2018-09-22T08:59:52.563Z,15.84
2018-09-22T09:05:47.556Z,20.66
2018-09-22T09:11:42.542Z,14.7
2018-09-22T09:17:37.529Z,19.05
2018-09-22T09:23:32.558Z,13.78
2018-09-22T09:29:27.581Z,22.31
2018-09-22T09:35:22.578Z,14.75
2018-09-22T09:41:17.586Z,16.69
2018-09-22T09:47:12.560Z,17.17
2018-09-22T09:53:07.575Z,18.74
2018-09-22T09:59:02.583Z,10.1
2018-09-22T10:04:57.592Z,16.01
2018-09-22T10:10:52.581Z,9.11
2018-09-22T10:16:47.585Z,10.63
2018-09-22T10:22:46.733Z,12.56
2018-09-22T10:28:37.729Z,14.14
2018-09-22T10:34:33.105Z,9.13
2018-09-22T10:40:27.843Z,10.71
2018-09-22T10:46:22.675Z,7.96
2018-09-22T10:52:17.861Z,8.24
2018-09-22T10:58:12.617Z,10.76
2018-09-22T11:04:07.640Z,10.22
2018-09-22T11:10:02.635Z,7.64
2018-09-22T11:15:57.659Z,7.48
2018-09-22T11:21:52.646Z,7.87
2018-09-22T11:27:47.668Z,6.7
2018-09-22T11:33:42.652Z,7.71
2018-09-22T11:39:37.673Z,7.46
2018-09-22T11:45:32.707Z,6.21
2018-09-22T11:51:27.735Z,8.83
2018-09-22T11:57:22.702Z,7.48
2018-09-22T12:03:21.862Z,7.95
2018-09-22T12:09:12.723Z,8.6
2018-09-22T12:15:07.782Z,7.86
2018-09-22T12:21:04.758Z,7.44
2018-09-22T12:26:57.710Z,8.38
2018-09-22T12:32:54.497Z,5.33
2018-09-22T12:38:47.720Z,4.93
2018-09-22T12:44:42.713Z,6.47
2018-09-22T12:50:37.739Z,6.37
2018-09-22T12:56:32.792Z,7.71
2018-09-22T13:02:29.666Z,12.95
2018-09-22T13:08:22.761Z,7.5
2018-09-22T13:14:17.726Z,14.17
2018-09-22T13:20:14.156Z,8.44
2018-09-22T13:26:07.781Z,9.4
2018-09-22T13:32:02.807Z,8.64
2018-09-22T13:37:57.771Z,8
2018-09-22T13:43:52.777Z,7.5
2018-09-22T13:49:47.787Z,6.59
2018-09-22T13:55:42.765Z,10.44
2018-09-22T14:01:37.795Z,9.32
2018-09-22T14:07:32.785Z,8.97
2018-09-22T14:13:27.861Z,9.23
2018-09-22T14:19:22.807Z,7.81
2018-09-22T14:25:17.806Z,6.99
2018-09-22T14:31:12.831Z,8.07
2018-09-22T14:37:09.999Z,10.69
2018-09-22T14:43:02.821Z,10.03
2018-09-22T14:48:57.841Z,6.96
2018-09-22T14:54:52.843Z,7.38
2018-09-22T15:00:47.855Z,7.24
2018-09-22T15:06:42.856Z,7.26
2018-09-22T15:12:37.855Z,9.59
2018-09-22T15:18:32.876Z,7.23
2018-09-22T15:24:27.967Z,7.35
2018-09-22T15:30:22.941Z,11.54
2018-09-22T15:36:17.912Z,7.3
2018-09-22T15:42:12.888Z,9.39
2018-09-22T15:48:08.028Z,11.13
2018-09-22T15:54:02.901Z,14
2018-09-22T15:59:57.943Z,8.02
2018-09-22T16:05:52.896Z,9.35
2018-09-22T16:11:47.911Z,8.98
2018-09-22T16:17:42.926Z,8.87
2018-09-22T16:23:37.943Z,13.38
2018-09-22T16:29:32.957Z,9.93
2018-09-22T16:35:27.953Z,11.52
2018-09-22T16:41:22.951Z,10.46
2018-09-22T16:47:17.939Z,11.88
2018-09-22T16:53:12.929Z,14.99
2018-09-22T16:59:08.006Z,10.48
2018-09-22T17:05:04.855Z,11.52
2018-09-22T17:10:57.965Z,14.07
2018-09-22T17:16:53.001Z,15.76
2018-09-22T17:22:47.981Z,20.79
2018-09-22T17:28:43.024Z,13.7
2018-09-22T17:34:37.992Z,16.2
2018-09-22T17:40:33.017Z,11.82
2018-09-22T17:46:27.996Z,13.47
2018-09-22T17:52:23.022Z,11.61
2018-09-22T17:58:18.032Z,13.03
2018-09-22T18:04:13.009Z,9.93
2018-09-22T18:10:08.053Z,13.12
2018-09-22T18:16:03.020Z,13.51
2018-09-22T18:21:58.029Z,11.24
2018-09-22T18:27:53.052Z,11.13
2018-09-22T18:33:48.121Z,12.05
2018-09-22T18:39:43.049Z,11.27
2018-09-22T18:45:38.034Z,12.51
2018-09-22T18:51:33.077Z,14.49
2018-09-22T18:57:28.087Z,15.33
2018-09-22T19:03:23.059Z,9.71
2018-09-22T19:09:18.067Z,16.85
2018-09-22T19:15:15.426Z,13.94
2018-09-22T19:21:08.050Z,9.64
2018-09-22T19:27:03.081Z,13.18
2018-09-22T19:32:58.085Z,10.16
2018-09-22T19:38:53.129Z,11.03
2018-09-22T19:44:48.146Z,12.25
2018-09-22T19:50:43.128Z,11.54
2018-09-22T19:56:38.318Z,12.58
2018-09-22T20:02:37.210Z,15.93
2018-09-22T20:08:28.103Z,18.34
2018-09-22T20:14:23.131Z,17.92
2018-09-22T20:20:18.166Z,11.79
2018-09-22T20:26:13.119Z,10.07
2018-09-22T20:32:12.265Z,11.95
2018-09-22T20:38:03.151Z,11.03
2018-09-22T20:43:58.123Z,11.48
2018-09-22T20:49:53.206Z,13.67
2018-09-22T20:55:48.157Z,13.31
2018-09-22T21:01:47.173Z,12.1
2018-09-22T21:07:40.090Z,15.67
2018-09-22T21:13:33.218Z,12.53
2018-09-22T21:19:28.149Z,15.07
2018-09-22T21:25:23.164Z,14.33
2018-09-22T21:31:18.249Z,14.9
2018-09-22T21:37:13.204Z,14.6
2018-09-22T21:43:08.187Z,14.47
2018-09-22T21:49:03.169Z,16.44
2018-09-22T21:54:58.269Z,15.2
2018-09-22T22:00:57.309Z,16.54
2018-09-22T22:06:48.462Z,16.36
2018-09-22T22:12:43.255Z,13.66
2018-09-22T22:18:38.217Z,15.37
2018-09-22T22:24:33.234Z,16.04
2018-09-22T22:30:28.219Z,14.37
2018-09-22T22:36:23.239Z,13.92
2018-09-22T22:42:18.224Z,16.91
2018-09-22T22:48:13.237Z,14.1
2018-09-22T22:54:08.286Z,18.52
2018-09-22T23:00:07.343Z,15.85
2018-09-22T23:05:58.253Z,15.39
2018-09-22T23:11:53.239Z,20.84
2018-09-22T23:17:48.252Z,13.42
2018-09-22T23:23:43.296Z,16.87
2018-09-22T23:29:38.284Z,15.55
2018-09-22T23:35:33.267Z,13.2
2018-09-22T23:41:32.345Z,12.56
2018-09-22T23:47:23.331Z,11.87
2018-09-22T23:53:18.303Z,17.13
2018-09-22T23:59:13.297Z,16.81
